CheckWX is a tool to help pilots better visualize weather data.  It is not intended as a substitute for an official pre-flight weather briefing.

13:40:28 UTC

KSMQ METAR
Somerset Airport
Somerville, New Jersey, USA
Current

32 mins ago

KSMQ 311308Z AUTO 08006KT 5SM BR OVC012 06/04 A3003 RMK AO2 RAE1257 P0000 T00560039
Observed
Mar-31 @ 13:08 UTC
Wind
  • 080° at 6 KTS
Visibility
5 SM
Flight Rules
MVFR
Conditions
Mist
Cloud Levels
  • Overcast at 1,200' AGL
Temperature
C / 43°F
Dewpoint
C / 39°F
Humidity
87%
Altimeter
30.03" Hg
Pressure
1016.92 hPa
Current Rain
0.01"
Previous

1 hour ago

KSMQ 311222Z AUTO 00000KT 1 3/4SM BR BKN009 OVC014 06/04 A3003 RMK AO2 CIG 006V011 T00560044
Observed
Mar-31 @ 12:22 UTC
Visibility
1 3/4 SM
Flight Rules
IFR
Conditions
Mist
Cloud Levels
  • Broken at 900' AGL
  • Overcast at 1,400' AGL
Temperature
C / 43°F
Dewpoint
C / 39°F
Humidity
87%
Altimeter
30.03" Hg
Pressure
1016.92 hPa
Previous

2 hours ago

KSMQ 311206Z AUTO 12003KT 5SM BR BKN008 OVC013 06/05 A3003 RMK AO2 CIG 006V012 T00560050
Observed
Mar-31 @ 12:06 UTC
Wind
  • 120° at 3 KTS
Visibility
5 SM
Flight Rules
IFR
Conditions
Mist
Cloud Levels
  • Broken at 800' AGL
  • Overcast at 1,300' AGL
Temperature
C / 43°F
Dewpoint
C / 41°F
Humidity
93%
Altimeter
30.03" Hg
Pressure
1016.92 hPa